createdAt,value
2023-05-20T00:00:27.575Z,76.68
2023-05-20T00:01:27.547Z,76.68
2023-05-20T00:02:27.737Z,76.79
2023-05-20T00:03:27.664Z,76.79
2023-05-20T00:04:27.561Z,76.68
2023-05-20T00:05:27.510Z,76.79
2023-05-20T00:06:27.482Z,76.89
2023-05-20T00:07:27.474Z,76.79
2023-05-20T00:08:27.473Z,76.99
2023-05-20T00:09:27.438Z,77.09
2023-05-20T00:10:27.445Z,77.09
2023-05-20T00:11:27.414Z,77.20
2023-05-20T00:12:27.423Z,77.29
2023-05-20T00:13:27.404Z,77.40
2023-05-20T00:14:27.380Z,77.53
2023-05-20T00:15:27.363Z,77.74
2023-05-20T00:16:27.373Z,77.94
2023-05-20T00:17:27.399Z,78.05
2023-05-20T00:18:27.347Z,78.15
2023-05-20T00:19:27.348Z,78.15
2023-05-20T00:20:27.304Z,78.25
2023-05-20T00:21:27.281Z,78.25
2023-05-20T00:22:27.264Z,78.45
2023-05-20T00:23:27.272Z,78.45
2023-05-20T00:24:27.251Z,78.35
2023-05-20T00:25:27.237Z,78.66
2023-05-20T00:26:27.217Z,78.76
2023-05-20T00:27:27.243Z,78.86
2023-05-20T00:28:27.247Z,78.96
2023-05-20T00:29:27.177Z,79.10
2023-05-20T00:30:27.183Z,79.00
2023-05-20T00:31:27.186Z,79.20
2023-05-20T00:32:27.298Z,79.41
2023-05-20T00:33:27.120Z,79.61
2023-05-20T00:34:27.111Z,79.71
2023-05-20T00:35:27.105Z,79.71
2023-05-20T00:36:27.093Z,79.91
2023-05-20T00:37:27.096Z,79.91
2023-05-20T00:38:27.055Z,80.05
2023-05-20T00:39:27.048Z,80.05
2023-05-20T00:40:27.031Z,80.05
2023-05-20T00:41:27.035Z,80.05
2023-05-20T00:42:27.038Z,80.16
2023-05-20T00:43:26.990Z,80.36
2023-05-20T00:44:29.545Z,80.36
2023-05-20T00:45:26.972Z,80.46
2023-05-20T00:46:27.116Z,80.46
2023-05-20T00:47:26.965Z,80.46
2023-05-20T00:48:26.928Z,80.56
2023-05-20T00:49:27.530Z,80.66
2023-05-20T00:50:26.911Z,80.66
2023-05-20T00:51:26.898Z,80.77
2023-05-20T00:52:26.880Z,80.77
2023-05-20T00:53:26.887Z,80.77
2023-05-20T00:54:26.845Z,80.77
2023-05-20T00:55:26.845Z,80.66
2023-05-20T00:56:26.843Z,80.66
2023-05-20T00:57:26.828Z,80.66
2023-05-20T00:58:26.795Z,80.87
2023-05-20T00:59:26.780Z,80.97
2023-05-20T01:00:26.807Z,81.07
2023-05-20T01:01:26.778Z,81.07
2023-05-20T01:02:26.896Z,81.17
2023-05-20T01:03:26.841Z,81.07
2023-05-20T01:04:26.712Z,81.17
2023-05-20T01:05:26.716Z,81.17
2023-05-20T01:06:26.682Z,81.17
2023-05-20T01:07:26.671Z,81.13
2023-05-20T01:08:26.660Z,81.04
2023-05-20T01:09:26.671Z,81.13
2023-05-20T01:10:26.648Z,80.97
2023-05-20T01:11:26.626Z,80.93
2023-05-20T01:12:26.627Z,80.93
2023-05-20T01:13:26.599Z,80.83
2023-05-20T01:14:26.607Z,80.83
2023-05-20T01:15:26.570Z,80.83
2023-05-20T01:16:26.693Z,80.73
2023-05-20T01:17:26.564Z,80.73
2023-05-20T01:18:26.529Z,80.73
2023-05-20T01:19:26.675Z,80.73
2023-05-20T01:20:26.516Z,80.59
2023-05-20T01:21:26.488Z,80.49
2023-05-20T01:22:26.482Z,80.59
2023-05-20T01:23:26.475Z,80.59
2023-05-20T01:24:26.471Z,80.38
2023-05-20T01:25:26.472Z,80.49
2023-05-20T01:26:26.426Z,80.49
2023-05-20T01:27:26.410Z,80.38
2023-05-20T01:28:26.411Z,80.49
2023-05-20T01:29:26.382Z,80.59
2023-05-20T01:30:26.372Z,80.35
2023-05-20T01:31:26.393Z,80.35
2023-05-20T01:32:26.391Z,80.24
2023-05-20T01:33:28.033Z,80.15
2023-05-20T01:34:26.323Z,80.24
2023-05-20T01:35:26.304Z,80.04
2023-05-20T01:36:26.290Z,79.94
2023-05-20T01:37:26.274Z,79.94
2023-05-20T01:38:26.277Z,80.04
2023-05-20T01:39:26.252Z,79.94
2023-05-20T01:40:26.238Z,79.84
2023-05-20T01:41:26.223Z,79.80
2023-05-20T01:42:26.224Z,79.94
2023-05-20T01:43:26.211Z,79.90
2023-05-20T01:44:26.196Z,80.04
2023-05-20T01:45:26.165Z,79.90
2023-05-20T01:46:27.066Z,79.94
2023-05-20T01:47:26.171Z,80.00
2023-05-20T01:48:26.153Z,79.90
2023-05-20T01:49:26.121Z,79.90
2023-05-20T01:50:26.101Z,79.90
2023-05-20T01:51:26.088Z,79.80
2023-05-20T01:52:26.089Z,79.80
2023-05-20T01:53:26.060Z,79.90
2023-05-20T01:54:26.054Z,79.90
2023-05-20T01:55:26.058Z,79.90
2023-05-20T01:56:26.038Z,79.90
2023-05-20T01:57:26.046Z,80.11
2023-05-20T01:58:25.994Z,80.11
2023-05-20T01:59:25.979Z,80.41
2023-05-20T02:00:25.976Z,80.31
2023-05-20T02:01:26.002Z,80.41
2023-05-20T02:02:25.957Z,80.11
2023-05-20T02:03:25.975Z,80.21
2023-05-20T02:04:25.940Z,80.11
2023-05-20T02:05:26.027Z,80.00
2023-05-20T02:06:25.902Z,80.00
2023-05-20T02:07:25.872Z,80.00
2023-05-20T02:08:25.859Z,79.90
2023-05-20T02:09:26.512Z,79.90
2023-05-20T02:10:25.851Z,79.90
2023-05-20T02:11:25.856Z,80.11
2023-05-20T02:12:25.807Z,80.00
2023-05-20T02:13:25.796Z,80.21
2023-05-20T02:14:25.788Z,80.11
2023-05-20T02:15:25.780Z,80.21
2023-05-20T02:16:25.813Z,80.11
2023-05-20T02:17:25.740Z,80.11
2023-05-20T02:18:25.728Z,80.21
2023-05-20T02:19:25.873Z,80.31
2023-05-20T02:20:25.755Z,80.31
2023-05-20T02:21:25.692Z,80.31
2023-05-20T02:22:25.716Z,80.31
2023-05-20T02:23:25.669Z,80.31
2023-05-20T02:24:25.670Z,80.31
2023-05-20T02:25:25.649Z,80.41
2023-05-20T02:26:25.627Z,80.31
2023-05-20T02:27:25.609Z,80.21
2023-05-20T02:28:25.614Z,80.21
2023-05-20T02:29:25.596Z,80.31
2023-05-20T02:30:25.590Z,80.21
2023-05-20T02:31:25.592Z,80.21
2023-05-20T02:32:25.546Z,80.31
2023-05-20T02:33:25.536Z,80.41
2023-05-20T02:34:25.599Z,80.31
2023-05-20T02:35:25.511Z,80.21
2023-05-20T02:36:25.604Z,80.21
2023-05-20T02:37:25.475Z,80.41
2023-05-20T02:38:25.468Z,80.31
2023-05-20T02:39:25.465Z,80.31
2023-05-20T02:40:25.441Z,80.41
2023-05-20T02:41:25.430Z,80.41
2023-05-20T02:42:25.415Z,80.41
2023-05-20T02:43:25.416Z,80.41
2023-05-20T02:44:25.400Z,80.41
2023-05-20T02:45:25.373Z,80.41
2023-05-20T02:46:25.429Z,80.51
2023-05-20T02:47:25.395Z,80.62
2023-05-20T02:48:25.352Z,80.51
2023-05-20T02:49:25.316Z,80.62
2023-05-20T02:50:25.316Z,80.51
2023-05-20T02:51:25.290Z,80.37
2023-05-20T02:52:25.300Z,80.37
2023-05-20T02:53:25.281Z,80.58
2023-05-20T02:54:25.266Z,80.51
2023-05-20T02:55:25.234Z,80.47
2023-05-20T02:56:25.220Z,80.47
2023-05-20T02:57:25.228Z,80.37
2023-05-20T02:58:25.211Z,80.51
2023-05-20T02:59:25.183Z,80.47
2023-05-20T03:00:25.181Z,80.58
2023-05-20T03:01:25.190Z,80.47
2023-05-20T03:02:25.239Z,80.62
2023-05-20T03:03:25.130Z,80.72
2023-05-20T03:04:25.153Z,80.58
2023-05-20T03:05:25.102Z,80.47
2023-05-20T03:06:25.101Z,80.47
2023-05-20T03:07:25.105Z,80.58
2023-05-20T03:08:25.089Z,80.58
2023-05-20T03:09:25.059Z,80.58
2023-05-20T03:10:25.037Z,80.58
2023-05-20T03:11:25.037Z,80.68
2023-05-20T03:12:25.022Z,80.58
2023-05-20T03:13:24.996Z,80.78
2023-05-20T03:14:24.978Z,80.68
2023-05-20T03:15:24.968Z,80.78
2023-05-20T03:16:25.008Z,80.78
2023-05-20T03:17:25.010Z,80.82
2023-05-20T03:18:24.926Z,80.82
2023-05-20T03:19:24.965Z,80.72
2023-05-20T03:20:24.898Z,80.58
2023-05-20T03:21:24.930Z,80.68
2023-05-20T03:22:24.871Z,80.78
2023-05-20T03:23:24.858Z,80.82
2023-05-20T03:24:24.871Z,80.82
2023-05-20T03:25:24.844Z,80.72
2023-05-20T03:26:24.830Z,80.72
2023-05-20T03:27:24.803Z,80.82
2023-05-20T03:28:24.788Z,80.58
2023-05-20T03:29:24.777Z,80.58
2023-05-20T03:30:24.762Z,80.78
2023-05-20T03:31:24.767Z,81.02
2023-05-20T03:32:24.755Z,81.02
2023-05-20T03:33:24.725Z,81.02
2023-05-20T03:34:24.710Z,81.12
2023-05-20T03:35:24.710Z,81.12
2023-05-20T03:36:24.693Z,81.12
2023-05-20T03:37:24.669Z,81.12
2023-05-20T03:38:24.660Z,81.02
2023-05-20T03:39:24.644Z,81.23
2023-05-20T03:40:24.673Z,80.98
2023-05-20T03:41:24.619Z,80.98
2023-05-20T03:42:24.602Z,80.98
2023-05-20T03:43:24.591Z,80.98
2023-05-20T03:44:24.574Z,80.88
2023-05-20T03:45:24.586Z,80.98
2023-05-20T03:46:24.594Z,80.98
2023-05-20T03:47:24.559Z,80.98
2023-05-20T03:48:24.520Z,80.98
2023-05-20T03:49:24.542Z,80.88
2023-05-20T03:50:24.505Z,80.88
2023-05-20T03:51:24.480Z,80.78
2023-05-20T03:52:24.464Z,80.68
2023-05-20T03:53:24.456Z,80.78
2023-05-20T03:54:24.439Z,80.58
2023-05-20T03:55:24.439Z,80.44
2023-05-20T03:56:24.456Z,80.33
2023-05-20T03:57:24.401Z,80.33
2023-05-20T03:58:24.386Z,80.44
2023-05-20T03:59:24.389Z,80.44
2023-05-20T04:00:24.381Z,80.44
2023-05-20T04:01:24.345Z,80.54
2023-05-20T04:02:24.384Z,80.64
2023-05-20T04:03:24.347Z,80.64
2023-05-20T04:04:24.378Z,80.68
2023-05-20T04:05:24.292Z,80.74
2023-05-20T04:06:24.281Z,80.94
2023-05-20T04:07:24.266Z,80.98
2023-05-20T04:08:24.249Z,80.84
2023-05-20T04:09:24.267Z,80.64
2023-05-20T04:10:24.244Z,80.74
2023-05-20T04:11:24.215Z,80.54
2023-05-20T04:12:24.218Z,80.54
2023-05-20T04:13:24.208Z,80.40
2023-05-20T04:14:24.185Z,80.19
2023-05-20T04:15:24.161Z,80.30
2023-05-20T04:16:24.229Z,80.19
2023-05-20T04:17:24.137Z,80.30
2023-05-20T04:18:24.138Z,80.40
2023-05-20T04:19:24.266Z,80.60
2023-05-20T04:20:24.095Z,80.60
2023-05-20T04:21:24.087Z,80.50
2023-05-20T04:22:24.064Z,80.40
2023-05-20T04:23:24.072Z,80.19
2023-05-20T04:24:24.039Z,80.40
2023-05-20T04:25:24.032Z,80.40
2023-05-20T04:26:24.009Z,80.40
2023-05-20T04:27:24.021Z,80.40
2023-05-20T04:28:24.149Z,80.50
2023-05-20T04:29:23.975Z,80.40
2023-05-20T04:30:23.974Z,80.30
2023-05-20T04:31:23.963Z,80.60
2023-05-20T04:32:23.980Z,80.40
2023-05-20T04:33:23.938Z,80.40
2023-05-20T04:34:23.904Z,80.40
2023-05-20T04:35:23.892Z,80.19
2023-05-20T04:36:23.876Z,80.16
2023-05-20T04:37:23.885Z,80.06
2023-05-20T04:38:23.864Z,79.75
2023-05-20T04:39:23.895Z,79.85
2023-05-20T04:40:23.836Z,79.85
2023-05-20T04:41:23.811Z,79.75
2023-05-20T04:42:23.824Z,79.65
2023-05-20T04:43:23.784Z,79.41
2023-05-20T04:44:23.809Z,79.41
2023-05-20T04:45:23.760Z,79.31
2023-05-20T04:46:23.779Z,79.07
2023-05-20T04:47:23.743Z,79.07
2023-05-20T04:48:23.715Z,78.77
2023-05-20T04:49:23.714Z,78.56
2023-05-20T04:50:23.688Z,78.56
2023-05-20T04:51:23.694Z,78.66
2023-05-20T04:52:23.678Z,78.56
2023-05-20T04:53:23.688Z,78.56
2023-05-20T04:54:23.645Z,78.46
2023-05-20T04:55:23.625Z,78.26
2023-05-20T04:56:23.630Z,78.36
2023-05-20T04:57:23.606Z,78.66
2023-05-20T04:58:23.611Z,78.77
2023-05-20T04:59:23.579Z,78.97
2023-05-20T05:00:23.603Z,78.87
2023-05-20T05:01:23.643Z,78.87
2023-05-20T05:02:23.557Z,78.87
2023-05-20T05:03:23.527Z,78.77
2023-05-20T05:04:24.537Z,78.87
2023-05-20T05:05:23.513Z,78.97
2023-05-20T05:06:23.501Z,79.07
2023-05-20T05:07:23.476Z,79.17
2023-05-20T05:08:23.478Z,79.17
2023-05-20T05:09:23.456Z,79.17
2023-05-20T05:10:23.482Z,79.07
2023-05-20T05:11:23.447Z,79.17
2023-05-20T05:12:23.436Z,79.27
2023-05-20T05:13:23.394Z,79.21
2023-05-20T05:14:23.382Z,79.38
2023-05-20T05:15:23.394Z,79.41
2023-05-20T05:16:23.479Z,79.38
2023-05-20T05:17:23.342Z,79.31
2023-05-20T05:18:23.327Z,79.31
2023-05-20T05:19:23.590Z,79.51
2023-05-20T05:20:23.313Z,79.61
2023-05-20T05:21:23.298Z,79.58
2023-05-20T05:22:23.293Z,79.58
2023-05-20T05:23:23.325Z,79.47
2023-05-20T05:24:23.304Z,79.47
2023-05-20T05:25:24.015Z,79.47
2023-05-20T05:26:23.288Z,79.58
2023-05-20T05:27:23.305Z,79.68
2023-05-20T05:28:23.199Z,79.58
2023-05-20T05:29:23.206Z,79.72
2023-05-20T05:30:23.173Z,80.02
2023-05-20T05:31:23.161Z,79.92
2023-05-20T05:32:23.377Z,79.92
2023-05-20T05:33:23.178Z,79.92
2023-05-20T05:34:23.146Z,79.82
2023-05-20T05:35:23.129Z,80.12
2023-05-20T05:36:23.112Z,80.32
2023-05-20T05:37:23.084Z,80.22
2023-05-20T05:38:23.086Z,80.12
2023-05-20T05:39:23.054Z,80.12
2023-05-20T05:40:23.047Z,80.02
2023-05-20T05:41:23.039Z,80.08
2023-05-20T05:42:23.034Z,79.68
2023-05-20T05:43:23.048Z,79.68
2023-05-20T05:44:22.995Z,79.88
2023-05-20T05:45:22.974Z,79.68
2023-05-20T05:46:23.032Z,79.38
2023-05-20T05:47:23.054Z,79.78
2023-05-20T05:48:23.005Z,79.78
2023-05-20T05:49:22.923Z,79.58
2023-05-20T05:50:22.948Z,79.58
2023-05-20T05:51:22.910Z,79.68
2023-05-20T05:52:22.938Z,79.47
2023-05-20T05:53:22.986Z,79.58
2023-05-20T05:54:23.510Z,79.88
2023-05-20T05:55:22.871Z,79.98
2023-05-20T05:56:22.841Z,79.88
2023-05-20T05:57:22.830Z,79.68
2023-05-20T05:58:22.809Z,79.68
2023-05-20T05:59:22.795Z,80.08
2023-05-20T06:00:22.783Z,80.08
2023-05-20T06:01:22.822Z,80.19
2023-05-20T06:02:22.905Z,80.08
2023-05-20T06:03:22.996Z,79.94
2023-05-20T06:04:22.907Z,79.64
2023-05-20T06:05:22.718Z,79.64
2023-05-20T06:06:22.716Z,79.54
2023-05-20T06:07:22.713Z,79.44
2023-05-20T06:08:22.689Z,79.64
2023-05-20T06:09:22.663Z,79.54
2023-05-20T06:10:22.652Z,79.64
2023-05-20T06:11:22.648Z,79.34
2023-05-20T06:12:22.625Z,79.30
2023-05-20T06:13:22.613Z,79.20
2023-05-20T06:14:22.594Z,78.69
2023-05-20T06:15:22.581Z,78.59
2023-05-20T06:16:22.582Z,78.19
2023-05-20T06:17:22.585Z,78.28
2023-05-20T06:18:22.545Z,78.25
2023-05-20T06:19:22.632Z,77.95
2023-05-20T06:20:22.563Z,78.25
2023-05-20T06:21:22.517Z,78.01
2023-05-20T06:22:22.492Z,77.91
2023-05-20T06:23:22.478Z,77.71
2023-05-20T06:24:24.488Z,77.26
2023-05-20T06:25:22.469Z,76.72
2023-05-20T06:26:22.454Z,76.02
2023-05-20T06:27:22.422Z,75.78
2023-05-20T06:28:22.409Z,75.37
2023-05-20T06:29:22.399Z,74.93
2023-05-20T06:30:22.402Z,74.19
2023-05-20T06:31:22.434Z,73.65
2023-05-20T06:32:22.375Z,72.91
2023-05-20T06:33:22.355Z,71.77
2023-05-20T06:34:22.343Z,72.07
2023-05-20T06:35:22.339Z,71.87
2023-05-20T06:36:22.326Z,70.32
2023-05-20T06:37:22.297Z,69.18
2023-05-20T06:38:22.282Z,67.91
2023-05-20T06:39:22.269Z,66.55
2023-05-20T06:40:22.270Z,64.81
2023-05-20T06:41:22.279Z,62.55
2023-05-20T06:42:22.232Z,60.99
2023-05-20T06:43:22.227Z,60.33
2023-05-20T06:44:22.217Z,58.65
2023-05-20T06:45:22.202Z,56.90
2023-05-20T06:46:22.213Z,56.77
2023-05-20T06:47:22.181Z,55.43
2023-05-20T06:48:22.160Z,53.96
2023-05-20T06:49:22.154Z,53.44
2023-05-20T06:50:22.141Z,51.87
2023-05-20T06:51:22.113Z,51.92
2023-05-20T06:52:22.129Z,51.87
2023-05-20T06:53:22.114Z,51.12
2023-05-20T06:54:22.103Z,50.93
2023-05-20T06:55:22.090Z,51.18
2023-05-20T06:56:22.060Z,51.70
2023-05-20T06:57:22.037Z,52.39
2023-05-20T06:58:22.044Z,51.37
2023-05-20T06:59:22.008Z,51.40
2023-05-20T07:00:22.021Z,53.71
2023-05-20T07:01:22.049Z,54.86
2023-05-20T07:02:22.006Z,55.83
2023-05-20T07:03:21.978Z,56.85
2023-05-20T07:04:22.024Z,58.14
2023-05-20T07:05:21.934Z,58.28
2023-05-20T07:06:21.922Z,56.38
2023-05-20T07:07:21.905Z,55.08
2023-05-20T07:08:21.925Z,52.91
2023-05-20T07:09:21.881Z,51.87
2023-05-20T07:10:21.864Z,51.07
2023-05-20T07:11:21.848Z,51.37
2023-05-20T07:12:21.852Z,51.70
2023-05-20T07:13:21.838Z,51.60
2023-05-20T07:14:21.817Z,51.28
2023-05-20T07:15:21.801Z,51.47
2023-05-20T07:16:21.830Z,51.15
2023-05-20T07:17:21.795Z,50.95
2023-05-20T07:18:21.762Z,51.25
2023-05-20T07:19:21.781Z,52.19
2023-05-20T07:20:21.735Z,53.26
2023-05-20T07:21:21.718Z,54.80
2023-05-20T07:22:23.011Z,55.55
2023-05-20T07:23:21.702Z,56.21
2023-05-20T07:24:21.715Z,56.70
2023-05-20T07:25:21.676Z,57.13
2023-05-20T07:26:21.670Z,57.95
2023-05-20T07:27:21.653Z,58.38
2023-05-20T07:28:21.640Z,59.53
2023-05-20T07:29:21.616Z,59.91
2023-05-20T07:30:21.602Z,59.48
2023-05-20T07:31:21.628Z,58.78
2023-05-20T07:32:21.595Z,58.75
2023-05-20T07:33:21.565Z,58.55
2023-05-20T07:34:21.548Z,58.23
2023-05-20T07:35:21.563Z,58.62
2023-05-20T07:36:21.548Z,57.63
2023-05-20T07:37:21.511Z,57.53
2023-05-20T07:38:21.503Z,57.82
2023-05-20T07:39:21.493Z,58.03
2023-05-20T07:40:21.505Z,57.82
2023-05-20T07:41:21.675Z,58.00
2023-05-20T07:42:21.447Z,57.03
2023-05-20T07:43:21.431Z,55.93
2023-05-20T07:44:21.468Z,54.23
2023-05-20T07:45:21.423Z,52.66
2023-05-20T07:46:21.430Z,50.46
2023-05-20T07:47:21.428Z,48.27
2023-05-20T07:48:21.370Z,47.85
2023-05-20T07:49:21.356Z,46.62
2023-05-20T07:50:21.368Z,45.40
2023-05-20T07:50:50.363Z,48.97
2023-05-20T07:51:51.081Z,51.97
2023-05-20T07:52:56.362Z,54.68
2023-05-20T07:53:51.364Z,52.89
2023-05-20T07:54:50.328Z,50.11
2023-05-20T07:55:50.318Z,51.03
2023-05-20T07:56:50.285Z,52.29
2023-05-20T07:57:50.267Z,53.11
2023-05-20T07:58:50.284Z,54.03
2023-05-20T07:59:50.258Z,54.28
2023-05-20T08:00:50.228Z,53.63
2023-05-20T08:01:50.270Z,54.08
2023-05-20T08:02:50.400Z,54.90
2023-05-20T08:03:50.403Z,55.23
2023-05-20T08:04:50.209Z,56.15
2023-05-20T08:05:50.172Z,56.87
2023-05-20T08:06:51.089Z,56.42
2023-05-20T08:07:50.174Z,55.68
2023-05-20T08:08:50.154Z,56.65
2023-05-20T08:09:50.123Z,55.05
2023-05-20T08:10:50.097Z,53.70
2023-05-20T08:11:50.219Z,52.39
2023-05-20T08:12:50.091Z,50.53
2023-05-20T08:13:50.106Z,50.51
2023-05-20T08:14:50.055Z,50.36
2023-05-20T08:15:50.048Z,50.31
2023-05-20T08:16:51.085Z,52.29
2023-05-20T08:17:50.064Z,50.76
2023-05-20T08:18:50.077Z,48.97
2023-05-20T08:19:49.996Z,48.97
2023-05-20T08:20:49.970Z,51.97
2023-05-20T08:21:49.957Z,56.06
2023-05-20T08:22:49.963Z,58.47
2023-05-20T08:23:49.927Z,59.42
2023-05-20T08:24:49.921Z,60.68
2023-05-20T08:25:49.916Z,63.17
2023-05-20T08:26:49.908Z,63.54
2023-05-20T08:27:49.928Z,63.07
2023-05-20T08:28:49.874Z,64.94
2023-05-20T08:29:49.852Z,62.78
2023-05-20T08:30:49.852Z,59.31
2023-05-20T08:31:49.839Z,56.01
2023-05-20T08:32:49.827Z,56.23
2023-05-20T08:33:49.811Z,53.86
2023-05-20T08:34:49.808Z,52.17
2023-05-20T08:35:49.780Z,51.72
2023-05-20T08:36:49.771Z,51.20
2023-05-20T08:37:49.749Z,55.11
2023-05-20T08:38:49.733Z,55.68
2023-05-20T08:39:49.724Z,55.33
2023-05-20T08:40:49.724Z,57.11
2023-05-20T08:41:49.713Z,56.56
2023-05-20T08:42:49.681Z,57.81
2023-05-20T08:43:49.692Z,58.34
2023-05-20T08:44:49.661Z,59.27
2023-05-20T08:45:49.663Z,58.38
2023-05-20T08:46:49.728Z,57.01
2023-05-20T08:47:49.657Z,58.97
2023-05-20T08:48:49.631Z,60.45
2023-05-20T08:49:49.620Z,61.18
2023-05-20T08:50:49.602Z,60.42
2023-05-20T08:51:49.569Z,60.49
2023-05-20T08:52:49.557Z,58.18
2023-05-20T08:53:49.562Z,57.53
2023-05-20T08:54:49.525Z,55.53
2023-05-20T08:55:49.541Z,54.78
2023-05-20T08:56:49.511Z,53.91
2023-05-20T08:57:49.499Z,52.17
2023-05-20T08:58:49.474Z,51.03
2023-05-20T08:59:49.655Z,49.77
2023-05-20T09:00:49.495Z,49.91
2023-05-20T09:01:49.500Z,51.37
2023-05-20T09:02:49.459Z,52.74
2023-05-20T09:03:49.423Z,52.07
2023-05-20T09:04:49.551Z,50.29
2023-05-20T09:05:49.400Z,49.91
2023-05-20T09:06:49.381Z,50.34
2023-05-20T09:07:49.364Z,50.98
2023-05-20T09:08:49.357Z,51.72
2023-05-20T09:09:49.359Z,52.67
2023-05-20T09:10:49.319Z,53.69
2023-05-20T09:11:49.311Z,54.24
2023-05-20T09:12:49.297Z,55.31
2023-05-20T09:13:49.320Z,56.10
2023-05-20T09:14:49.294Z,56.06
2023-05-20T09:15:49.326Z,58.34
2023-05-20T09:16:49.316Z,58.21
2023-05-20T09:17:49.255Z,58.38
2023-05-20T09:18:49.287Z,57.93
2023-05-20T09:19:49.242Z,60.10
2023-05-20T09:20:49.190Z,61.15
2023-05-20T09:21:49.194Z,61.38
2023-05-20T09:22:49.165Z,62.94
2023-05-20T09:23:49.209Z,62.92
2023-05-20T09:24:49.140Z,60.59
2023-05-20T09:25:49.133Z,59.44
2023-05-20T09:26:49.111Z,58.76
2023-05-20T09:27:49.114Z,57.73
2023-05-20T09:28:49.101Z,57.40
2023-05-20T09:29:49.074Z,57.28
2023-05-20T09:30:49.061Z,56.77
2023-05-20T09:31:49.106Z,56.25
2023-05-20T09:32:49.238Z,56.68
2023-05-20T09:33:49.023Z,57.17
2023-05-20T09:34:49.010Z,57.50
2023-05-20T09:35:49.034Z,57.90
2023-05-20T09:36:48.994Z,57.60
2023-05-20T09:37:48.997Z,55.77
2023-05-20T09:38:48.958Z,54.53
2023-05-20T09:39:48.942Z,54.75
2023-05-20T09:40:48.931Z,54.90
2023-05-20T09:41:48.918Z,55.40
2023-05-20T09:42:48.921Z,55.18
2023-05-20T09:43:48.898Z,55.30
2023-05-20T09:44:48.875Z,54.75
2023-05-20T09:45:48.887Z,53.31
2023-05-20T09:46:48.871Z,52.24
2023-05-20T09:47:48.920Z,52.37
2023-05-20T09:48:48.847Z,51.60
2023-05-20T09:49:48.815Z,50.68
2023-05-20T09:50:48.798Z,50.13
2023-05-20T09:51:48.799Z,49.89
2023-05-20T09:52:48.775Z,49.57
2023-05-20T09:53:48.763Z,49.22
2023-05-20T09:54:48.781Z,49.96
2023-05-20T09:55:48.744Z,48.90
2023-05-20T09:56:48.740Z,51.35
2023-05-20T09:57:48.708Z,51.28
2023-05-20T09:58:48.710Z,49.32
2023-05-20T09:59:48.728Z,48.97
2023-05-20T10:00:48.697Z,48.36
2023-05-20T10:01:48.819Z,47.72
2023-05-20T10:02:48.788Z,48.06
2023-05-20T10:03:48.763Z,49.52
2023-05-20T10:04:48.624Z,50.23
2023-05-20T10:05:48.647Z,51.25
2023-05-20T10:06:48.637Z,51.30
2023-05-20T10:07:48.595Z,50.06
2023-05-20T10:08:48.600Z,49.84
2023-05-20T10:09:48.566Z,48.61
2023-05-20T10:10:48.564Z,48.16
2023-05-20T10:11:48.532Z,46.98
2023-05-20T10:12:48.525Z,48.24
2023-05-20T10:13:48.533Z,48.71
2023-05-20T10:14:48.510Z,48.41
2023-05-20T10:15:48.518Z,48.31
2023-05-20T10:16:48.474Z,47.99
2023-05-20T10:17:48.557Z,47.97
2023-05-20T10:18:48.468Z,48.19
2023-05-20T10:19:48.491Z,48.16
2023-05-20T10:20:48.459Z,47.35
2023-05-20T10:21:48.408Z,47.25
2023-05-20T10:22:48.397Z,47.67
2023-05-20T10:23:48.382Z,47.94
2023-05-20T10:24:48.389Z,47.03
2023-05-20T10:25:48.357Z,46.64
2023-05-20T10:26:48.357Z,47.87
2023-05-20T10:27:48.361Z,47.99
2023-05-20T10:28:48.334Z,47.99
2023-05-20T10:30:48.291Z,48.51
2023-05-20T10:31:48.285Z,48.11
2023-05-20T10:32:48.399Z,48.51
2023-05-20T10:33:48.301Z,48.61
2023-05-20T10:34:48.239Z,48.24
2023-05-20T10:35:48.258Z,48.93
2023-05-20T10:36:48.233Z,48.09
2023-05-20T10:37:48.211Z,47.85
2023-05-20T10:38:48.202Z,46.89
2023-05-20T10:39:48.208Z,47.09
2023-05-20T10:40:48.166Z,46.00
2023-05-20T10:41:48.157Z,46.76
2023-05-20T10:42:48.156Z,47.28
2023-05-20T10:43:48.134Z,48.19
2023-05-20T10:44:48.125Z,47.47
2023-05-20T10:45:48.106Z,47.99
2023-05-20T10:47:03.814Z,47.30
2023-05-20T10:47:48.171Z,46.84
2023-05-20T10:48:48.163Z,46.42
2023-05-20T10:49:48.080Z,45.78
2023-05-20T10:50:48.048Z,45.49
2023-05-20T10:51:48.046Z,47.72
2023-05-20T10:52:48.029Z,49.05
2023-05-20T10:53:48.010Z,47.89
2023-05-20T10:54:50.137Z,50.38
2023-05-20T10:55:47.983Z,49.84
2023-05-20T10:56:47.959Z,48.98
2023-05-20T10:57:47.962Z,47.65
2023-05-20T10:58:47.965Z,47.31
2023-05-20T10:59:47.933Z,46.72
2023-05-20T11:00:50.305Z,46.22
2023-05-20T11:01:47.916Z,46.34
2023-05-20T11:02:48.123Z,46.64
2023-05-20T11:03:47.996Z,46.44
2023-05-20T11:04:47.963Z,46.44
2023-05-20T11:05:47.849Z,45.51
2023-05-20T11:06:47.865Z,45.00
2023-05-20T11:07:48.005Z,44.90
2023-05-20T11:08:47.833Z,44.46
2023-05-20T11:09:47.808Z,45.05
2023-05-20T11:10:47.794Z,44.98
2023-05-20T11:11:47.812Z,44.70
2023-05-20T11:12:47.782Z,44.70
2023-05-20T11:13:47.757Z,44.40
2023-05-20T11:14:47.748Z,45.51
2023-05-20T11:15:47.749Z,45.27
2023-05-20T11:16:47.815Z,44.64
2023-05-20T11:17:47.738Z,44.19
2023-05-20T11:18:47.731Z,44.51
2023-05-20T11:19:47.685Z,44.17
2023-05-20T11:20:47.688Z,44.11
2023-05-20T11:21:47.675Z,44.40
2023-05-20T11:22:47.729Z,44.60
2023-05-20T11:23:47.656Z,43.97
2023-05-20T11:24:47.631Z,43.87
2023-05-20T11:25:47.625Z,43.97
2023-05-20T11:26:47.603Z,45.00
2023-05-20T11:27:47.601Z,44.51
2023-05-20T11:28:47.672Z,44.80
2023-05-20T11:29:47.579Z,45.09
2023-05-20T11:30:47.563Z,44.36
2023-05-20T11:31:47.571Z,43.79
2023-05-20T11:32:47.555Z,42.76
2023-05-20T11:33:47.592Z,41.86
2023-05-20T11:34:47.580Z,41.68
2023-05-20T11:35:47.493Z,43.40
2023-05-20T11:36:47.476Z,45.34
2023-05-20T11:37:47.464Z,45.63
2023-05-20T11:38:47.456Z,46.86
2023-05-20T11:39:47.476Z,47.18
2023-05-20T11:40:51.019Z,47.22
2023-05-20T11:41:47.414Z,48.58
2023-05-20T11:42:47.412Z,49.69
2023-05-20T11:43:47.398Z,49.99
2023-05-20T11:44:47.387Z,49.02
2023-05-20T11:45:47.399Z,48.51
2023-05-20T11:46:47.397Z,48.80
2023-05-20T11:47:47.382Z,48.73
2023-05-20T11:48:47.343Z,49.66
2023-05-20T11:49:47.312Z,50.71
2023-05-20T11:50:47.323Z,50.73
2023-05-20T11:51:47.287Z,51.03
2023-05-20T11:52:47.274Z,50.60
2023-05-20T11:53:47.284Z,50.58
2023-05-20T11:54:47.248Z,50.58
2023-05-20T11:55:47.269Z,50.29
2023-05-20T11:56:47.225Z,49.89
2023-05-20T11:57:47.223Z,50.71
2023-05-20T11:58:47.214Z,52.07
2023-05-20T11:59:47.187Z,52.89
2023-05-20T12:00:51.761Z,52.81
2023-05-20T12:01:48.167Z,53.11
2023-05-20T12:02:47.274Z,53.56
2023-05-20T12:03:47.364Z,54.18
2023-05-20T12:04:47.187Z,54.38
2023-05-20T12:05:47.111Z,53.28
2023-05-20T12:06:47.095Z,51.30
2023-05-20T12:07:47.094Z,51.30
2023-05-20T12:08:47.071Z,51.00
2023-05-20T12:09:47.058Z,50.13
2023-05-20T12:10:47.040Z,48.88
2023-05-20T12:11:47.076Z,48.09
2023-05-20T12:12:47.039Z,47.96
2023-05-20T12:13:47.009Z,49.71
2023-05-20T12:14:46.996Z,50.53
2023-05-20T12:15:47.026Z,51.79
2023-05-20T12:16:46.982Z,52.54
2023-05-20T12:17:46.975Z,53.23
2023-05-20T12:18:46.984Z,53.21
2023-05-20T12:19:47.015Z,53.01
2023-05-20T12:20:46.922Z,53.11
2023-05-20T12:21:46.915Z,53.33
2023-05-20T12:22:46.896Z,53.73
2023-05-20T12:23:46.872Z,53.53
2023-05-20T12:24:46.867Z,52.44
2023-05-20T12:25:46.849Z,50.90
2023-05-20T12:26:46.850Z,50.04
2023-05-20T12:27:46.845Z,48.90
2023-05-20T12:28:46.816Z,48.16
2023-05-20T12:29:46.800Z,47.16
2023-05-20T12:30:46.797Z,47.19
2023-05-20T12:31:46.835Z,47.01
2023-05-20T12:32:46.823Z,46.91
2023-05-20T12:33:46.740Z,46.66
2023-05-20T12:34:46.728Z,48.11
2023-05-20T12:35:46.751Z,48.65
2023-05-20T12:36:46.772Z,48.73
2023-05-20T12:37:46.703Z,48.75
2023-05-20T12:38:46.698Z,49.79
2023-05-20T12:39:46.661Z,50.31
2023-05-20T12:40:46.665Z,50.18
2023-05-20T12:41:46.636Z,49.66
2023-05-20T12:42:46.660Z,49.40
2023-05-20T12:43:46.637Z,49.40
2023-05-20T12:44:46.616Z,49.01
2023-05-20T12:45:46.599Z,48.27
2023-05-20T12:46:46.598Z,47.57
2023-05-20T12:47:46.631Z,48.71
2023-05-20T12:48:46.550Z,49.57
2023-05-20T12:49:46.547Z,50.48
2023-05-20T12:50:46.593Z,50.36
2023-05-20T12:51:46.530Z,48.83
2023-05-20T12:52:46.498Z,48.71